createdAt,value
2023-03-26T00:00:09.225Z,1.10
2023-03-26T00:02:41.320Z,1.92
2023-03-26T00:05:10.438Z,1.40
2023-03-26T00:07:41.501Z,1.42
2023-03-26T00:10:09.953Z,1.50
2023-03-26T00:12:38.018Z,1.40
2023-03-26T00:15:06.530Z,1.20
2023-03-26T00:17:37.302Z,1.35
2023-03-26T00:20:06.056Z,1.02
2023-03-26T00:22:34.097Z,1.45
2023-03-26T00:25:02.097Z,1.50
2023-03-26T00:27:30.060Z,1.48
2023-03-26T00:29:59.774Z,1.83
2023-03-26T00:32:34.055Z,1.85
2023-03-26T00:35:03.382Z,2.15
2023-03-26T00:37:36.541Z,2.25
2023-03-26T00:40:07.471Z,2.30
2023-03-26T00:42:38.508Z,1.80
2023-03-26T00:45:09.117Z,1.95
2023-03-26T00:47:37.864Z,1.70
2023-03-26T00:50:15.306Z,2.33
2023-03-26T00:52:46.152Z,2.15
2023-03-26T00:55:16.015Z,1.85
2023-03-26T00:57:45.897Z,2.30
2023-03-26T01:00:16.770Z,1.95
2023-03-26T01:02:45.348Z,2.17
2023-03-26T01:05:53.324Z,1.95
2023-03-26T01:08:22.742Z,2.08
2023-03-26T01:10:52.097Z,1.58
2023-03-26T01:13:26.036Z,2.03
2023-03-26T01:15:54.477Z,1.52
2023-03-26T01:18:33.822Z,1.50
2023-03-26T01:21:08.356Z,2.22
2023-03-26T01:23:49.099Z,2.40
2023-03-26T01:26:38.717Z,1.77
2023-03-26T01:29:19.490Z,1.55
2023-03-26T01:32:05.318Z,1.70
2023-03-26T01:35:06.531Z,2.05
2023-03-26T01:38:10.981Z,1.33
2023-03-26T01:40:49.459Z,1.83
2023-03-26T01:43:35.297Z,2.30
2023-03-26T01:46:08.945Z,2.13
2023-03-26T01:48:42.978Z,2.33
2023-03-26T01:51:12.783Z,2.28
2023-03-26T01:53:48.259Z,2.22
2023-03-26T01:56:29.434Z,2.47
2023-03-26T01:59:04.895Z,2.45
2023-03-26T02:02:05.121Z,2.70
2023-03-26T02:04:39.039Z,2.22
2023-03-26T02:07:26.086Z,2.55
2023-03-26T02:10:11.601Z,2.75
2023-03-26T02:12:43.118Z,2.45
2023-03-26T02:15:12.616Z,3.13
2023-03-26T02:17:40.736Z,2.55
2023-03-26T02:20:12.367Z,2.78
2023-03-26T02:22:41.528Z,3.25
2023-03-26T02:25:17.889Z,2.35
2023-03-26T02:27:49.791Z,2.95
2023-03-26T02:30:21.652Z,2.28
2023-03-26T02:32:54.463Z,3.33
2023-03-26T02:35:24.008Z,2.15
2023-03-26T02:37:57.651Z,3.10
2023-03-26T02:40:26.090Z,3.17
2023-03-26T02:42:55.250Z,2.95
2023-03-26T02:45:24.108Z,2.17
2023-03-26T02:48:12.379Z,1.98
2023-03-26T02:50:43.143Z,2.33
2023-03-26T02:53:37.477Z,2.72
2023-03-26T02:56:35.127Z,2.47
2023-03-26T02:59:21.368Z,3.10
2023-03-26T03:01:58.696Z,2.50
2023-03-26T03:04:26.669Z,2.72
2023-03-26T03:06:57.619Z,2.47
2023-03-26T03:09:26.429Z,2.70
2023-03-26T03:12:12.765Z,2.97
2023-03-26T03:14:40.761Z,2.38
2023-03-26T03:17:08.603Z,2.70
2023-03-26T03:19:37.723Z,2.80
2023-03-26T03:22:05.955Z,3.30
2023-03-26T03:24:34.955Z,2.22
2023-03-26T03:27:02.983Z,2.42
2023-03-26T03:29:46.221Z,2.85
2023-03-26T03:32:40.194Z,2.10
2023-03-26T03:35:08.699Z,2.17
2023-03-26T03:37:36.627Z,2.60
2023-03-26T03:40:10.149Z,3.15
2023-03-26T03:42:39.308Z,2.80
2023-03-26T03:45:09.054Z,2.70
2023-03-26T03:48:03.535Z,3.38
2023-03-26T03:50:39.211Z,3.38
2023-03-26T03:53:30.406Z,2.55
2023-03-26T03:56:01.982Z,3.35
2023-03-26T03:58:58.238Z,3.63
2023-03-26T04:01:32.106Z,2.95
2023-03-26T04:04:05.919Z,3.72
2023-03-26T04:06:56.116Z,3.83
2023-03-26T04:09:27.036Z,4.25
2023-03-26T04:11:59.119Z,3.50
2023-03-26T04:14:42.317Z,3.25
2023-03-26T04:17:15.805Z,4.45
2023-03-26T04:19:45.545Z,3.70
2023-03-26T04:22:18.168Z,3.80
2023-03-26T04:25:02.422Z,4.35
2023-03-26T04:27:41.527Z,3.38
2023-03-26T04:30:23.830Z,3.88
2023-03-26T04:33:04.338Z,3.47
2023-03-26T04:35:36.881Z,4.30
2023-03-26T04:38:07.403Z,4.05
2023-03-26T04:40:42.234Z,3.53
2023-03-26T04:43:30.225Z,3.80
2023-03-26T04:46:04.448Z,4.35
2023-03-26T04:48:38.851Z,4.22
2023-03-26T04:53:38.239Z,3.47
2023-03-26T04:56:23.982Z,4.07
2023-03-26T04:59:15.411Z,4.50
2023-03-26T05:01:45.909Z,4.30
2023-03-26T05:04:16.258Z,3.40
2023-03-26T05:06:44.797Z,3.15
2023-03-26T05:09:21.295Z,3.65
2023-03-26T05:12:11.303Z,3.28
2023-03-26T05:14:51.611Z,3.88
2023-03-26T05:17:34.889Z,3.17
2023-03-26T05:20:04.389Z,3.70
2023-03-26T05:22:32.776Z,4.05
2023-03-26T05:25:24.019Z,3.67
2023-03-26T05:27:52.008Z,3.38
2023-03-26T05:30:22.785Z,3.28
2023-03-26T05:32:56.756Z,3.72
2023-03-26T05:35:30.207Z,3.30
2023-03-26T05:37:58.438Z,3.03
2023-03-26T05:40:27.304Z,3.08
2023-03-26T05:42:58.392Z,2.50
2023-03-26T05:45:35.280Z,2.97
2023-03-26T05:48:16.017Z,2.85
2023-03-26T05:50:43.892Z,3.40
2023-03-26T05:53:11.866Z,3.25
2023-03-26T05:56:02.890Z,3.38
2023-03-26T05:59:06.778Z,3.30
2023-03-26T06:01:54.752Z,4.10
2023-03-26T06:04:42.759Z,4.57
2023-03-26T06:07:23.086Z,3.88
2023-03-26T06:10:18.185Z,4.05
2023-03-26T06:12:47.439Z,3.75
2023-03-26T06:15:15.916Z,3.17
2023-03-26T06:17:48.344Z,4.60
2023-03-26T06:20:33.811Z,4.10
2023-03-26T06:23:32.226Z,3.53
2023-03-26T06:26:16.175Z,4.30
2023-03-26T06:29:04.370Z,3.95
2023-03-26T06:31:48.641Z,3.70
2023-03-26T06:34:21.320Z,3.30
2023-03-26T06:36:53.671Z,4.65
2023-03-26T06:39:23.155Z,4.55
2023-03-26T06:42:07.399Z,4.22
2023-03-26T06:44:55.564Z,3.70
2023-03-26T06:47:43.819Z,4.03
2023-03-26T06:50:32.107Z,4.45
2023-03-26T06:53:11.537Z,5.00
2023-03-26T06:56:07.167Z,5.00
2023-03-26T06:58:55.314Z,4.57
2023-03-26T07:01:32.452Z,5.00
2023-03-26T07:04:23.243Z,5.00
2023-03-26T07:07:35.025Z,5.47
2023-03-26T07:10:32.529Z,4.68
2023-03-26T07:13:39.991Z,4.00
2023-03-26T07:16:43.136Z,4.93
2023-03-26T07:19:29.353Z,4.05
2023-03-26T07:21:59.649Z,4.28
2023-03-26T07:25:28.077Z,4.47
2023-03-26T07:28:40.790Z,4.45
2023-03-26T07:32:09.441Z,3.58
2023-03-26T07:35:06.098Z,5.10
2023-03-26T07:38:04.405Z,4.93
2023-03-26T07:41:03.063Z,4.65
2023-03-26T07:44:25.856Z,4.60
2023-03-26T07:47:36.617Z,4.25
2023-03-26T07:50:25.894Z,4.38
2023-03-26T07:53:10.973Z,5.30
2023-03-26T07:56:22.430Z,5.10
2023-03-26T07:59:48.969Z,4.00
2023-03-26T08:03:13.776Z,3.85
2023-03-26T08:06:38.928Z,4.60
2023-03-26T08:09:40.434Z,4.68
2023-03-26T08:12:46.392Z,4.07
2023-03-26T08:15:37.987Z,5.93
2023-03-26T08:18:27.176Z,4.60
2023-03-26T08:21:11.100Z,4.32
2023-03-26T08:23:55.023Z,4.45
2023-03-26T08:26:38.573Z,4.00
2023-03-26T08:29:38.194Z,4.68
2023-03-26T08:32:38.915Z,4.72
2023-03-26T08:35:09.318Z,4.63
2023-03-26T08:37:37.286Z,4.68
2023-03-26T08:40:06.652Z,4.60
2023-03-26T08:43:28.611Z,4.18
2023-03-26T08:45:58.560Z,4.55
2023-03-26T08:48:34.903Z,4.78
2023-03-26T08:51:12.904Z,4.63
2023-03-26T08:53:51.039Z,4.78
2023-03-26T08:56:57.525Z,4.78
2023-03-26T08:59:48.208Z,3.92
2023-03-26T09:02:57.578Z,5.07
2023-03-26T09:05:44.086Z,4.85
2023-03-26T09:08:38.863Z,4.30
2023-03-26T09:12:44.171Z,4.25
2023-03-26T09:15:43.851Z,4.18
2023-03-26T09:18:39.064Z,3.92
2023-03-26T09:21:54.253Z,4.55
2023-03-26T09:24:34.547Z,3.88
2023-03-26T09:27:31.285Z,3.55
2023-03-26T09:30:41.193Z,3.90
2023-03-26T09:33:38.269Z,3.15
2023-03-26T09:36:29.286Z,3.55
2023-03-26T09:39:09.773Z,4.05
2023-03-26T09:42:40.633Z,3.40
2023-03-26T09:45:27.069Z,3.90
2023-03-26T09:47:57.692Z,4.35
2023-03-26T09:50:34.765Z,4.25
2023-03-26T09:53:42.228Z,4.07
2023-03-26T09:56:13.312Z,4.30
2023-03-26T09:58:43.941Z,3.83
2023-03-26T10:01:44.195Z,3.90
2023-03-26T10:04:22.570Z,4.18
2023-03-26T10:07:01.305Z,3.60
2023-03-26T10:10:04.824Z,3.65
2023-03-26T10:12:37.212Z,2.92
2023-03-26T10:15:09.848Z,2.83
2023-03-26T10:18:36.930Z,3.80
2023-03-26T10:21:58.561Z,3.03
2023-03-26T10:25:03.130Z,3.30
2023-03-26T10:27:44.284Z,3.60
2023-03-26T10:30:33.269Z,3.88
2023-03-26T10:33:52.127Z,3.45
2023-03-26T10:36:29.797Z,3.75
2023-03-26T10:39:37.111Z,3.17
2023-03-26T10:42:21.314Z,2.78
2023-03-26T10:45:33.437Z,2.47
2023-03-26T10:48:21.356Z,2.65
2023-03-26T10:51:07.234Z,2.20
2023-03-26T10:53:50.545Z,2.85
2023-03-26T10:56:46.966Z,2.65
2023-03-26T10:59:16.891Z,3.10
2023-03-26T11:02:36.615Z,2.33
2023-03-26T11:05:21.060Z,2.50
2023-03-26T11:08:06.425Z,2.92
2023-03-26T11:10:43.354Z,2.05
2023-03-26T11:13:29.711Z,2.53
2023-03-26T11:16:33.392Z,2.47
2023-03-26T11:19:14.943Z,2.70
2023-03-26T11:22:03.608Z,2.40
2023-03-26T11:25:07.401Z,2.30
2023-03-26T11:28:37.684Z,2.47
2023-03-26T11:31:17.444Z,2.17
2023-03-26T11:33:56.492Z,2.80
2023-03-26T11:36:58.071Z,1.85
2023-03-26T11:39:32.610Z,2.50
2023-03-26T11:42:11.123Z,3.70
2023-03-26T11:45:05.265Z,5.57
2023-03-26T11:47:54.367Z,4.28
2023-03-26T11:50:54.090Z,2.45
2023-03-26T11:53:29.406Z,1.90
2023-03-26T11:56:16.078Z,4.45
2023-03-26T11:58:51.345Z,2.70
2023-03-26T12:01:30.473Z,2.70
2023-03-26T12:04:05.109Z,2.55
2023-03-26T12:06:34.417Z,3.22
2023-03-26T12:09:02.845Z,2.28
2023-03-26T12:11:35.263Z,15.57
2023-03-26T12:14:05.775Z,8.13
2023-03-26T12:16:35.891Z,4.43
2023-03-26T12:19:22.171Z,4.25
2023-03-26T12:21:53.117Z,3.38
2023-03-26T12:24:33.500Z,6.93
2023-03-26T12:27:25.795Z,6.50
2023-03-26T12:30:09.454Z,3.22
2023-03-26T12:32:46.214Z,4.18
2023-03-26T12:35:19.328Z,3.28
2023-03-26T12:37:47.855Z,3.50
2023-03-26T12:40:35.953Z,6.63
2023-03-26T12:44:55.430Z,4.03
2023-03-26T12:47:58.244Z,4.63
2023-03-26T12:49:23.092Z,4.65
2023-03-26T12:52:03.366Z,3.08
2023-03-26T12:54:33.020Z,2.92
2023-03-26T12:57:21.223Z,2.90
2023-03-26T13:00:28.736Z,3.78
2023-03-26T13:03:38.665Z,2.88
2023-03-26T13:06:15.677Z,3.20
2023-03-26T13:08:48.159Z,4.10
2023-03-26T13:11:28.417Z,3.80
2023-03-26T13:14:36.721Z,3.38
2023-03-26T13:17:54.235Z,3.80
2023-03-26T13:20:32.965Z,2.63
2023-03-26T13:23:33.801Z,2.55
2023-03-26T13:26:36.808Z,3.50
2023-03-26T13:29:19.870Z,4.13
2023-03-26T13:31:59.714Z,2.33
2023-03-26T13:34:33.685Z,3.63
2023-03-26T13:37:46.853Z,2.72
2023-03-26T13:40:18.070Z,3.22
2023-03-26T13:42:57.832Z,5.93
2023-03-26T13:45:47.555Z,2.85
2023-03-26T13:48:25.644Z,2.85
2023-03-26T13:51:23.241Z,2.92
2023-03-26T13:54:30.628Z,3.38
2023-03-26T13:57:41.877Z,3.33
2023-03-26T14:00:22.027Z,2.40
2023-03-26T14:03:04.394Z,2.85
2023-03-26T14:05:47.632Z,2.92
2023-03-26T14:08:26.389Z,2.25
2023-03-26T14:11:07.556Z,2.42
2023-03-26T14:16:43.393Z,2.35
2023-03-26T14:19:50.007Z,2.92
2023-03-26T14:22:26.884Z,2.78
2023-03-26T14:25:21.393Z,2.78
2023-03-26T14:28:39.212Z,2.33
2023-03-26T14:31:44.626Z,4.55
2023-03-26T14:34:30.292Z,2.72
2023-03-26T14:37:27.191Z,3.00
2023-03-26T14:40:18.173Z,2.78
2023-03-26T14:43:41.907Z,2.70
2023-03-26T14:46:36.385Z,4.25
2023-03-26T14:49:13.165Z,3.33
2023-03-26T14:52:08.199Z,2.70
2023-03-26T14:54:44.339Z,3.60
2023-03-26T14:57:43.843Z,3.15
2023-03-26T15:00:39.540Z,2.78
2023-03-26T15:03:13.252Z,2.78
2023-03-26T15:06:36.157Z,2.45
2023-03-26T15:09:43.671Z,2.70
2023-03-26T15:12:38.944Z,1.95
2023-03-26T15:15:46.371Z,2.28
2023-03-26T15:19:18.666Z,2.75
2023-03-26T15:22:03.134Z,4.00
2023-03-26T15:24:59.842Z,3.95
2023-03-26T15:28:47.895Z,2.55
2023-03-26T15:31:47.607Z,2.15
2023-03-26T15:34:52.208Z,3.47
2023-03-26T15:37:27.332Z,2.15
2023-03-26T15:40:10.054Z,1.90
2023-03-26T15:42:56.528Z,1.67
2023-03-26T15:45:30.953Z,2.58
2023-03-26T15:48:21.041Z,1.50
2023-03-26T15:51:14.171Z,1.58
2023-03-26T15:53:57.100Z,1.70
2023-03-26T15:56:47.453Z,1.58
2023-03-26T15:59:22.946Z,3.13
2023-03-26T16:02:18.843Z,2.65
2023-03-26T16:04:57.401Z,3.13
2023-03-26T16:07:48.175Z,2.53
2023-03-26T16:10:55.933Z,3.10
2023-03-26T16:13:33.256Z,1.80
2023-03-26T16:16:15.126Z,1.50
2023-03-26T16:18:58.293Z,1.65
2023-03-26T16:21:55.008Z,2.80
2023-03-26T16:24:26.960Z,3.45
2023-03-26T16:27:13.119Z,1.92
2023-03-26T16:30:16.330Z,2.60
2023-03-26T16:33:23.336Z,1.98
2023-03-26T16:36:14.936Z,2.08
2023-03-26T16:41:39.592Z,2.53
2023-03-26T16:44:21.111Z,1.88
2023-03-26T16:47:24.806Z,1.73
2023-03-26T16:50:32.617Z,1.52
2023-03-26T16:53:23.339Z,1.55
2023-03-26T16:56:29.826Z,1.70
2023-03-26T16:59:25.676Z,1.80
2023-03-26T17:02:06.829Z,1.92
2023-03-26T17:04:36.866Z,1.58
2023-03-26T17:07:20.420Z,1.83
2023-03-26T17:09:58.556Z,1.23
2023-03-26T17:12:36.879Z,1.60
2023-03-26T17:15:36.682Z,1.70
2023-03-26T17:18:07.711Z,2.22
2023-03-26T17:20:59.566Z,2.20
2023-03-26T17:23:39.051Z,2.25
2023-03-26T17:26:42.824Z,2.28
2023-03-26T17:29:29.817Z,1.48
2023-03-26T17:32:09.371Z,1.40
2023-03-26T17:34:52.884Z,1.58
2023-03-26T17:37:45.758Z,1.98
2023-03-26T17:40:54.812Z,1.80
2023-03-26T17:43:49.911Z,1.42
2023-03-26T17:46:34.005Z,1.83
2023-03-26T17:49:27.281Z,1.40
2023-03-26T17:52:32.388Z,1.73
2023-03-26T17:55:02.112Z,1.48
2023-03-26T17:57:42.922Z,1.80
2023-03-26T18:00:35.325Z,3.85
2023-03-26T18:03:30.842Z,3.05
2023-03-26T18:06:09.774Z,2.00
2023-03-26T18:08:47.368Z,2.47
2023-03-26T18:11:31.592Z,1.73
2023-03-26T18:14:53.387Z,2.60
2023-03-26T18:19:53.268Z,1.30
2023-03-26T18:22:26.691Z,1.10
2023-03-26T18:24:59.758Z,1.40
2023-03-26T18:27:37.083Z,1.33
2023-03-26T18:30:18.710Z,1.88
2023-03-26T18:33:12.337Z,1.60
2023-03-26T18:35:43.462Z,2.22
2023-03-26T18:38:19.284Z,1.20
2023-03-26T18:41:08.028Z,2.90
2023-03-26T18:43:44.225Z,1.23
2023-03-26T18:46:14.414Z,1.75
2023-03-26T18:48:42.645Z,1.92
2023-03-26T18:51:11.110Z,1.77
2023-03-26T18:53:51.290Z,1.73
2023-03-26T18:56:33.839Z,0.93
2023-03-26T18:59:05.275Z,1.60
2023-03-26T19:01:36.841Z,1.27
2023-03-26T19:04:06.949Z,2.08
2023-03-26T19:06:39.890Z,2.25
2023-03-26T19:09:20.015Z,1.38
2023-03-26T19:12:27.996Z,1.35
2023-03-26T19:15:07.804Z,1.80
2023-03-26T19:17:51.485Z,2.63
2023-03-26T19:20:26.107Z,1.30
2023-03-26T19:22:58.302Z,1.65
2023-03-26T19:25:33.394Z,1.80
2023-03-26T19:28:01.556Z,2.13
2023-03-26T19:30:34.244Z,1.75
2023-03-26T19:33:20.833Z,1.75
2023-03-26T19:36:05.900Z,1.23
2023-03-26T19:38:49.113Z,1.70
2023-03-26T19:41:26.909Z,1.85
2023-03-26T19:43:57.953Z,1.75
2023-03-26T19:46:27.465Z,1.20
2023-03-26T19:48:58.134Z,1.60
2023-03-26T19:51:34.546Z,1.65
2023-03-26T19:54:19.858Z,1.35
2023-03-26T19:56:51.048Z,1.23
2023-03-26T19:59:19.413Z,1.50
2023-03-26T20:01:47.344Z,1.38
2023-03-26T20:04:15.495Z,1.90
2023-03-26T20:06:44.342Z,1.90
2023-03-26T20:09:13.332Z,1.10
2023-03-26T20:11:41.824Z,1.60
2023-03-26T20:14:15.160Z,1.20
2023-03-26T20:16:45.233Z,1.48
2023-03-26T20:19:14.835Z,1.45
2023-03-26T20:21:44.232Z,1.38
2023-03-26T20:24:15.935Z,2.40
2023-03-26T20:26:45.422Z,2.25
2023-03-26T20:29:14.501Z,0.95
2023-03-26T20:31:43.038Z,1.30
2023-03-26T20:34:18.305Z,1.38
2023-03-26T20:36:47.003Z,1.80
2023-03-26T20:39:15.131Z,1.10
2023-03-26T20:41:48.661Z,1.60
2023-03-26T20:44:19.737Z,1.55
2023-03-26T20:46:49.321Z,1.70
2023-03-26T20:49:18.287Z,2.03
2023-03-26T20:51:46.632Z,1.35
2023-03-26T20:54:18.928Z,1.63
2023-03-26T20:56:48.043Z,1.33
2023-03-26T20:59:26.559Z,1.40
2023-03-26T21:01:57.183Z,0.95
2023-03-26T21:04:26.586Z,1.17
2023-03-26T21:07:00.257Z,2.50
2023-03-26T21:09:34.071Z,1.60
2023-03-26T21:12:29.461Z,2.28
2023-03-26T21:14:57.678Z,1.33
2023-03-26T21:17:26.037Z,1.10
2023-03-26T21:19:54.677Z,1.55
2023-03-26T21:22:44.548Z,1.33
2023-03-26T21:25:29.584Z,1.42
2023-03-26T21:28:16.227Z,2.05
2023-03-26T21:30:44.489Z,1.45
2023-03-26T21:33:13.728Z,0.93
2023-03-26T21:35:41.971Z,2.03
2023-03-26T21:38:11.137Z,2.00
2023-03-26T21:40:42.478Z,1.80
2023-03-26T21:43:15.378Z,1.63
2023-03-26T21:45:43.942Z,1.20
2023-03-26T21:48:14.187Z,1.58
2023-03-26T21:50:45.485Z,1.10
2023-03-26T21:53:15.348Z,1.27
2023-03-26T21:56:19.150Z,1.27
2023-03-26T21:59:14.503Z,1.65
2023-03-26T22:02:02.754Z,1.80
2023-03-26T22:04:57.545Z,1.25
2023-03-26T22:07:46.873Z,1.92
2023-03-26T22:10:14.899Z,1.30
2023-03-26T22:12:42.844Z,1.63
2023-03-26T22:15:13.818Z,1.45
2023-03-26T22:17:42.168Z,1.10
2023-03-26T22:20:14.917Z,1.27
2023-03-26T22:22:48.589Z,1.67
2023-03-26T22:25:17.973Z,2.08
2023-03-26T22:27:47.309Z,1.30
2023-03-26T22:30:15.679Z,1.70
2023-03-26T22:32:44.660Z,1.70
2023-03-26T22:35:19.093Z,1.33
2023-03-26T22:37:47.416Z,1.17
2023-03-26T22:40:16.063Z,1.45
2023-03-26T22:42:44.296Z,1.35
2023-03-26T22:45:12.609Z,1.35
2023-03-26T22:48:04.919Z,1.38
2023-03-26T22:50:33.551Z,1.52
2023-03-26T22:53:01.567Z,1.13
2023-03-26T22:55:29.889Z,1.20
2023-03-26T22:57:58.300Z,1.80
2023-03-26T23:00:26.611Z,1.85
2023-03-26T23:03:00.249Z,1.63
2023-03-26T23:05:28.613Z,1.03
2023-03-26T23:07:59.698Z,1.65
2023-03-26T23:10:30.031Z,1.13
2023-03-26T23:12:57.964Z,1.03
2023-03-26T23:15:26.266Z,1.42
2023-03-26T23:17:55.019Z,1.50
2023-03-26T23:20:23.289Z,1.23
2023-03-26T23:22:51.306Z,1.35
2023-03-26T23:25:19.862Z,1.77
2023-03-26T23:27:48.851Z,2.20
2023-03-26T23:30:16.787Z,2.10
2023-03-26T23:32:44.696Z,1.60
2023-03-26T23:35:12.640Z,2.45
2023-03-26T23:37:42.154Z,1.70
2023-03-26T23:40:11.040Z,1.55
2023-03-26T23:42:39.106Z,2.35
2023-03-26T23:45:08.367Z,1.10
2023-03-26T23:47:37.171Z,1.30
2023-03-26T23:50:07.910Z,1.45
2023-03-26T23:52:37.461Z,1.38
2023-03-26T23:55:05.921Z,1.40
2023-03-26T23:57:45.354Z,1.60
